Terminal Aerodrome Forecast
Issued by NWS Louisville, KY

Home | Current Version | Previous Version | Text Only | Print | Product List | Glossary On
Versions: 1 2 3 4 5 6 7 8 9 10 11 12 13 14 15 16 17 18 19
000
FTUS43 KLMK 031731
TAFSDF
TAF
KSDF 031731Z 0318/0424 36005KT P6SM BKN035 OVC250
     FM032100 04003KT P6SM SCT040 OVC090
     FM041200 08005KT 5SM BR VCSH OVC030
     FM041900 12008KT 3SM -RA BR OVC008=

USA.gov is the U.S. government's official web portal to all federal, state and local government web resources and services.